SWA2893 KPHX-KLAX
Flight info
| Callsign | SWA2893 |
|---|---|
| Flight time | 1h 5m |
| Altitude | 36000 |
| Route | KEENS3 WLVRN ESTWD HLYWD1 |
| Aircraft | B38M/M-SDE1FGHILORVWXY/HB1 |
Departure
| Time | 2026-04-26 04:52 |
|---|---|
| Airport | Phoenix Sky Harbor International Airport (KPHX) |
Arrival
| Time | 2026-04-26 05:58 |
|---|---|
| Airport | Los Angeles International Airport (KLAX) |
| Time | Latitude | Longitude | Altitude | Speed | Heading |
|---|---|---|---|---|---|
| 2026-04-26 04:22 | 33.43370 | -112.00148 | 1127 ft | 0 kts | 314° |
| 2026-04-26 04:44 | 33.43369 | -112.00147 | 1127 ft | 2 kts | 314° |
| 2026-04-26 04:45 | 33.43355 | -112.00124 | 1116 ft | 4 kts | 280° |
| 2026-04-26 04:45 | 33.43361 | -112.00102 | 1123 ft | 4 kts | 209° |
| 2026-04-26 04:45 | 33.43379 | -112.00097 | 1121 ft | 0 kts | 180° |
| 2026-04-26 04:48 | 33.43373 | -112.00097 | 1116 ft | 4 kts | 180° |
| 2026-04-26 04:49 | 33.43301 | -112.00082 | 1119 ft | 16 kts | 153° |
| 2026-04-26 04:49 | 33.43216 | -112.00008 | 1119 ft | 16 kts | 104° |
| 2026-04-26 04:49 | 33.43214 | -111.99833 | 1126 ft | 26 kts | 89° |
| 2026-04-26 04:49 | 33.43213 | -111.99601 | 1124 ft | 29 kts | 90° |
| 2026-04-26 04:50 | 33.43212 | -111.99389 | 1121 ft | 16 kts | 100° |
| 2026-04-26 04:50 | 33.43132 | -111.99345 | 1120 ft | 12 kts | 186° |
| 2026-04-26 04:50 | 33.43104 | -111.99396 | 1122 ft | 0 kts | 270° |
| 2026-04-26 04:52 | 33.43104 | -111.99559 | 1126 ft | 54 kts | 270° |
| 2026-04-26 04:52 | 33.43105 | -112.00268 | 1127 ft | 116 kts | 270° |
| 2026-04-26 04:52 | 33.43107 | -112.01451 | 1146 ft | 163 kts | 269° |
| 2026-04-26 04:52 | 33.43100 | -112.02817 | 1777 ft | 165 kts | 267° |
| 2026-04-26 04:53 | 33.43061 | -112.04189 | 2403 ft | 166 kts | 264° |
| 2026-04-26 04:53 | 33.42970 | -112.05585 | 3035 ft | 173 kts | 265° |
| 2026-04-26 04:53 | 33.42894 | -112.07064 | 3624 ft | 184 kts | 264° |
| 2026-04-26 04:53 | 33.42577 | -112.08593 | 4161 ft | 197 kts | 249° |
| 2026-04-26 04:54 | 33.42070 | -112.10163 | 4811 ft | 207 kts | 248° |
| 2026-04-26 04:54 | 33.41524 | -112.11822 | 5444 ft | 220 kts | 248° |
| 2026-04-26 04:54 | 33.40959 | -112.13545 | 6228 ft | 225 kts | 248° |
| 2026-04-26 04:54 | 33.40389 | -112.15325 | 6903 ft | 234 kts | 248° |
| 2026-04-26 04:55 | 33.39809 | -112.17208 | 7456 ft | 250 kts | 249° |
| 2026-04-26 04:55 | 33.39269 | -112.19265 | 7903 ft | 270 kts | 261° |
| 2026-04-26 04:55 | 33.39399 | -112.21539 | 8670 ft | 277 kts | 278° |
| 2026-04-26 04:55 | 33.39710 | -112.23804 | 9458 ft | 282 kts | 277° |
| 2026-04-26 04:56 | 33.40034 | -112.26137 | 10223 ft | 286 kts | 277° |
| 2026-04-26 04:56 | 33.40378 | -112.28551 | 10672 ft | 304 kts | 277° |
| 2026-04-26 04:56 | 33.40750 | -112.31112 | 11097 ft | 320 kts | 277° |
| 2026-04-26 04:56 | 33.41143 | -112.33780 | 11697 ft | 329 kts | 278° |
| 2026-04-26 04:57 | 33.41541 | -112.36474 | 12575 ft | 329 kts | 277° |
| 2026-04-26 04:57 | 33.41940 | -112.39175 | 13436 ft | 331 kts | 277° |
| 2026-04-26 04:57 | 33.42342 | -112.41892 | 14242 ft | 332 kts | 277° |
| 2026-04-26 04:57 | 33.42745 | -112.44629 | 15066 ft | 334 kts | 277° |
| 2026-04-26 04:58 | 33.43149 | -112.47369 | 15869 ft | 336 kts | 277° |
| 2026-04-26 04:58 | 33.43556 | -112.50136 | 16641 ft | 338 kts | 277° |
| 2026-04-26 04:58 | 33.43964 | -112.52918 | 17411 ft | 340 kts | 277° |
| 2026-04-26 04:58 | 33.44374 | -112.55713 | 18181 ft | 342 kts | 277° |
| 2026-04-26 04:59 | 33.44782 | -112.58497 | 18826 ft | 344 kts | 277° |
| 2026-04-26 04:59 | 33.45017 | -112.61344 | 19454 ft | 344 kts | 267° |
| 2026-04-26 04:59 | 33.45011 | -112.64217 | 20079 ft | 347 kts | 269° |
| 2026-04-26 04:59 | 33.45048 | -112.67111 | 20716 ft | 349 kts | 269° |
| 2026-04-26 05:00 | 33.45096 | -112.70024 | 21322 ft | 351 kts | 270° |
| 2026-04-26 05:00 | 33.45152 | -112.72957 | 21925 ft | 354 kts | 270° |
| 2026-04-26 05:00 | 33.45212 | -112.75914 | 22520 ft | 356 kts | 270° |
| 2026-04-26 05:00 | 33.45311 | -112.78889 | 23091 ft | 360 kts | 275° |
| 2026-04-26 05:01 | 33.46007 | -112.81785 | 23642 ft | 366 kts | 288° |
| 2026-04-26 05:01 | 33.46957 | -112.84618 | 24125 ft | 368 kts | 288° |
| 2026-04-26 05:01 | 33.47922 | -112.87460 | 24599 ft | 370 kts | 288° |
| 2026-04-26 05:01 | 33.48905 | -112.90314 | 25080 ft | 371 kts | 288° |
| 2026-04-26 05:02 | 33.49900 | -112.93178 | 25549 ft | 373 kts | 289° |
| 2026-04-26 05:02 | 33.50901 | -112.96048 | 26025 ft | 375 kts | 289° |
| 2026-04-26 05:02 | 33.51912 | -112.98941 | 26468 ft | 377 kts | 289° |
| 2026-04-26 05:02 | 33.52926 | -113.01847 | 26912 ft | 379 kts | 289° |
| 2026-04-26 05:03 | 33.53945 | -113.04769 | 27345 ft | 381 kts | 289° |
| 2026-04-26 05:03 | 33.54969 | -113.07707 | 27852 ft | 383 kts | 288° |
| 2026-04-26 05:03 | 33.55986 | -113.10625 | 28288 ft | 385 kts | 289° |
| 2026-04-26 05:03 | 33.57020 | -113.13598 | 28727 ft | 387 kts | 289° |
| 2026-04-26 05:04 | 33.58061 | -113.16589 | 29160 ft | 389 kts | 288° |
| 2026-04-26 05:04 | 33.59105 | -113.19598 | 29579 ft | 391 kts | 289° |
| 2026-04-26 05:04 | 33.60151 | -113.22612 | 29960 ft | 393 kts | 288° |
| 2026-04-26 05:04 | 33.61204 | -113.25650 | 30321 ft | 394 kts | 288° |
| 2026-04-26 05:05 | 33.62258 | -113.28696 | 30693 ft | 396 kts | 288° |
| 2026-04-26 05:05 | 33.63314 | -113.31748 | 31113 ft | 395 kts | 288° |
| 2026-04-26 05:05 | 33.64363 | -113.34784 | 31644 ft | 392 kts | 288° |
| 2026-04-26 05:05 | 33.65402 | -113.37792 | 32207 ft | 388 kts | 287° |
| 2026-04-26 05:06 | 33.66418 | -113.40738 | 32780 ft | 384 kts | 287° |
| 2026-04-26 05:06 | 33.67435 | -113.43686 | 33345 ft | 381 kts | 287° |
| 2026-04-26 05:06 | 33.68440 | -113.46606 | 33910 ft | 377 kts | 287° |
| 2026-04-26 05:06 | 33.69436 | -113.49499 | 34374 ft | 373 kts | 287° |
| 2026-04-26 05:07 | 33.70423 | -113.52370 | 34770 ft | 372 kts | 286° |
| 2026-04-26 05:07 | 33.71406 | -113.55233 | 35132 ft | 370 kts | 286° |
| 2026-04-26 05:07 | 33.72387 | -113.58091 | 35477 ft | 369 kts | 286° |
| 2026-04-26 05:07 | 33.73364 | -113.60941 | 35793 ft | 369 kts | 286° |
| 2026-04-26 05:08 | 33.75314 | -113.66637 | 35874 ft | 367 kts | 286° |
| 2026-04-26 05:08 | 33.77249 | -113.72298 | 35855 ft | 366 kts | 286° |
| 2026-04-26 05:09 | 33.78860 | -113.77015 | 35830 ft | 366 kts | 286° |
| 2026-04-26 05:09 | 33.80794 | -113.82693 | 35806 ft | 367 kts | 286° |
| 2026-04-26 05:10 | 33.82727 | -113.88373 | 35793 ft | 367 kts | 286° |
| 2026-04-26 05:10 | 33.84658 | -113.94059 | 35786 ft | 367 kts | 285° |
| 2026-04-26 05:11 | 33.86592 | -113.99762 | 35775 ft | 368 kts | 285° |
| 2026-04-26 05:11 | 33.88524 | -114.05469 | 35774 ft | 368 kts | 285° |
| 2026-04-26 05:12 | 33.90424 | -114.11192 | 35771 ft | 366 kts | 281° |
| 2026-04-26 05:12 | 33.91479 | -114.17101 | 35766 ft | 365 kts | 277° |
| 2026-04-26 05:13 | 33.92523 | -114.23164 | 35762 ft | 373 kts | 277° |
| 2026-04-26 05:13 | 33.93562 | -114.29286 | 35764 ft | 373 kts | 277° |
| 2026-04-26 05:14 | 33.94600 | -114.35423 | 35760 ft | 374 kts | 277° |
| 2026-04-26 05:14 | 33.95634 | -114.41562 | 35756 ft | 374 kts | 277° |
| 2026-04-26 05:15 | 33.96664 | -114.47699 | 35753 ft | 374 kts | 277° |
| 2026-04-26 05:15 | 33.97693 | -114.53842 | 35753 ft | 374 kts | 277° |
| 2026-04-26 05:16 | 33.98720 | -114.59998 | 35755 ft | 375 kts | 277° |
| 2026-04-26 05:16 | 33.99745 | -114.66163 | 35754 ft | 375 kts | 277° |
| 2026-04-26 05:17 | 34.00769 | -114.72339 | 35762 ft | 376 kts | 277° |
| 2026-04-26 05:17 | 34.01790 | -114.78515 | 35760 ft | 376 kts | 277° |
| 2026-04-26 05:18 | 34.02801 | -114.84657 | 35756 ft | 376 kts | 276° |
| 2026-04-26 05:18 | 34.03817 | -114.90846 | 35762 ft | 376 kts | 277° |
| 2026-04-26 05:19 | 34.04832 | -114.97045 | 35765 ft | 377 kts | 276° |
| 2026-04-26 05:19 | 34.05846 | -115.03254 | 35761 ft | 377 kts | 276° |
| 2026-04-26 05:20 | 34.06857 | -115.09462 | 35770 ft | 377 kts | 276° |
| 2026-04-26 05:20 | 34.07867 | -115.15675 | 35774 ft | 378 kts | 276° |
| 2026-04-26 05:21 | 34.08876 | -115.21909 | 35779 ft | 379 kts | 276° |
| 2026-04-26 05:21 | 34.09882 | -115.28148 | 35772 ft | 378 kts | 276° |
| 2026-04-26 05:22 | 34.10885 | -115.34382 | 35777 ft | 379 kts | 276° |
| 2026-04-26 05:22 | 34.11887 | -115.40627 | 35776 ft | 379 kts | 276° |
| 2026-04-26 05:23 | 34.12880 | -115.46849 | 35779 ft | 379 kts | 276° |
| 2026-04-26 05:23 | 34.13878 | -115.53116 | 35779 ft | 380 kts | 276° |
| 2026-04-26 05:24 | 34.14874 | -115.59388 | 35749 ft | 379 kts | 276° |
| 2026-04-26 05:24 | 34.15866 | -115.65659 | 35780 ft | 381 kts | 276° |
| 2026-04-26 05:25 | 34.15987 | -115.71933 | 35789 ft | 374 kts | 263° |
| 2026-04-26 05:25 | 34.15469 | -115.78194 | 35798 ft | 375 kts | 262° |
| 2026-04-26 05:26 | 34.14887 | -115.84453 | 35827 ft | 375 kts | 262° |
| 2026-04-26 05:26 | 34.14283 | -115.90712 | 35846 ft | 376 kts | 261° |
| 2026-04-26 05:27 | 34.13672 | -115.96975 | 35859 ft | 376 kts | 261° |
| 2026-04-26 05:27 | 34.13060 | -116.03242 | 35875 ft | 376 kts | 261° |
| 2026-04-26 05:28 | 34.12444 | -116.09513 | 35883 ft | 376 kts | 261° |
| 2026-04-26 05:28 | 34.12136 | -116.12647 | 35740 ft | 372 kts | 261° |
| 2026-04-26 05:28 | 34.11832 | -116.15727 | 35015 ft | 370 kts | 261° |
| 2026-04-26 05:29 | 34.11523 | -116.18838 | 34057 ft | 376 kts | 261° |
| 2026-04-26 05:29 | 34.11215 | -116.21950 | 33218 ft | 378 kts | 261° |
| 2026-04-26 05:29 | 34.10903 | -116.25083 | 32592 ft | 376 kts | 261° |
| 2026-04-26 05:29 | 34.10601 | -116.28111 | 32068 ft | 379 kts | 261° |
| 2026-04-26 05:30 | 34.10271 | -116.31265 | 31427 ft | 379 kts | 261° |
| 2026-04-26 05:30 | 34.09926 | -116.34500 | 30948 ft | 388 kts | 261° |
| 2026-04-26 05:30 | 34.09585 | -116.37702 | 30585 ft | 392 kts | 261° |
| 2026-04-26 05:30 | 34.09235 | -116.40985 | 30105 ft | 395 kts | 261° |
| 2026-04-26 05:31 | 34.08882 | -116.44287 | 29562 ft | 399 kts | 261° |
| 2026-04-26 05:31 | 34.08524 | -116.47625 | 29013 ft | 403 kts | 261° |
| 2026-04-26 05:31 | 34.08164 | -116.50982 | 28510 ft | 406 kts | 261° |
| 2026-04-26 05:31 | 34.07799 | -116.54374 | 28002 ft | 409 kts | 262° |
| 2026-04-26 05:32 | 34.07430 | -116.57793 | 27512 ft | 411 kts | 262° |
| 2026-04-26 05:32 | 34.07108 | -116.61232 | 26932 ft | 414 kts | 263° |
| 2026-04-26 05:32 | 34.06790 | -116.64702 | 26467 ft | 417 kts | 263° |
| 2026-04-26 05:32 | 34.06466 | -116.68189 | 25966 ft | 420 kts | 263° |
| 2026-04-26 05:33 | 34.06136 | -116.71704 | 25467 ft | 423 kts | 263° |
| 2026-04-26 05:33 | 34.05805 | -116.75226 | 24940 ft | 423 kts | 263° |
| 2026-04-26 05:33 | 34.05473 | -116.78739 | 24444 ft | 421 kts | 263° |
| 2026-04-26 05:33 | 34.05141 | -116.82244 | 23930 ft | 419 kts | 263° |
| 2026-04-26 05:34 | 34.04815 | -116.85677 | 23444 ft | 416 kts | 263° |
| 2026-04-26 05:34 | 34.04459 | -116.89131 | 22831 ft | 413 kts | 261° |
| 2026-04-26 05:34 | 34.04017 | -116.92533 | 22292 ft | 410 kts | 261° |
| 2026-04-26 05:34 | 34.03583 | -116.95926 | 21817 ft | 408 kts | 261° |
| 2026-04-26 05:35 | 34.03153 | -116.99297 | 21346 ft | 405 kts | 261° |
| 2026-04-26 05:35 | 34.02730 | -117.02654 | 20845 ft | 403 kts | 262° |
| 2026-04-26 05:35 | 34.02336 | -117.05984 | 20301 ft | 400 kts | 262° |
| 2026-04-26 05:35 | 34.01943 | -117.09298 | 19838 ft | 398 kts | 262° |
| 2026-04-26 05:36 | 34.01550 | -117.12596 | 19363 ft | 396 kts | 262° |
| 2026-04-26 05:36 | 34.01158 | -117.15870 | 18879 ft | 394 kts | 262° |
| 2026-04-26 05:36 | 34.00767 | -117.19130 | 18393 ft | 392 kts | 262° |
| 2026-04-26 05:36 | 34.00378 | -117.22371 | 17864 ft | 387 kts | 262° |
| 2026-04-26 05:37 | 33.99997 | -117.25559 | 17313 ft | 380 kts | 262° |
| 2026-04-26 05:37 | 33.99630 | -117.28619 | 16886 ft | 366 kts | 262° |
| 2026-04-26 05:37 | 33.99274 | -117.31616 | 16407 ft | 347 kts | 262° |
| 2026-04-26 05:37 | 33.98948 | -117.34396 | 15979 ft | 332 kts | 262° |
| 2026-04-26 05:38 | 33.98632 | -117.37088 | 15613 ft | 317 kts | 262° |
| 2026-04-26 05:38 | 33.98328 | -117.39664 | 15236 ft | 303 kts | 261° |
| 2026-04-26 05:38 | 33.98036 | -117.42136 | 14863 ft | 292 kts | 261° |
| 2026-04-26 05:38 | 33.97755 | -117.44515 | 14506 ft | 281 kts | 261° |
| 2026-04-26 05:39 | 33.97484 | -117.46801 | 14159 ft | 271 kts | 261° |
| 2026-04-26 05:39 | 33.97434 | -117.49028 | 13782 ft | 264 kts | 279° |
| 2026-04-26 05:39 | 33.97891 | -117.51164 | 13507 ft | 264 kts | 281° |
| 2026-04-26 05:39 | 33.98358 | -117.53312 | 13255 ft | 266 kts | 282° |
| 2026-04-26 05:40 | 33.98840 | -117.55457 | 12996 ft | 267 kts | 282° |
| 2026-04-26 05:40 | 33.99335 | -117.57622 | 12680 ft | 267 kts | 283° |
| 2026-04-26 05:40 | 33.99836 | -117.59781 | 12356 ft | 268 kts | 283° |
| 2026-04-26 05:40 | 34.00340 | -117.61940 | 12037 ft | 268 kts | 283° |
| 2026-04-26 05:41 | 34.00847 | -117.64100 | 11715 ft | 266 kts | 283° |
| 2026-04-26 05:41 | 34.01350 | -117.66243 | 11386 ft | 265 kts | 283° |
| 2026-04-26 05:41 | 34.01846 | -117.68352 | 11066 ft | 264 kts | 283° |
| 2026-04-26 05:41 | 34.02078 | -117.70519 | 10711 ft | 261 kts | 264° |
| 2026-04-26 05:42 | 34.01885 | -117.72685 | 10388 ft | 259 kts | 263° |
| 2026-04-26 05:42 | 34.01695 | -117.74836 | 10074 ft | 258 kts | 263° |
| 2026-04-26 05:42 | 34.01498 | -117.76988 | 9752 ft | 257 kts | 262° |
| 2026-04-26 05:42 | 34.01297 | -117.79126 | 9363 ft | 256 kts | 262° |
| 2026-04-26 05:43 | 34.01093 | -117.81258 | 9053 ft | 255 kts | 262° |
| 2026-04-26 05:43 | 34.00888 | -117.83374 | 8744 ft | 254 kts | 262° |
| 2026-04-26 05:43 | 34.00683 | -117.85481 | 8417 ft | 253 kts | 262° |
| 2026-04-26 05:43 | 34.00478 | -117.87583 | 8095 ft | 252 kts | 262° |
| 2026-04-26 05:44 | 34.00272 | -117.89681 | 7806 ft | 251 kts | 262° |
| 2026-04-26 05:44 | 34.00068 | -117.91760 | 7494 ft | 250 kts | 262° |
| 2026-04-26 05:44 | 33.99868 | -117.93810 | 7166 ft | 250 kts | 263° |
| 2026-04-26 05:44 | 33.99664 | -117.95882 | 6873 ft | 249 kts | 263° |
| 2026-04-26 05:45 | 33.99458 | -117.97978 | 6578 ft | 247 kts | 263° |
| 2026-04-26 05:45 | 33.99255 | -118.00030 | 6254 ft | 246 kts | 263° |
| 2026-04-26 05:45 | 33.99050 | -118.02083 | 5942 ft | 246 kts | 263° |
| 2026-04-26 05:45 | 33.98846 | -118.04131 | 5623 ft | 246 kts | 263° |
| 2026-04-26 05:46 | 33.98647 | -118.06131 | 5322 ft | 245 kts | 263° |
| 2026-04-26 05:46 | 33.98444 | -118.08171 | 5007 ft | 245 kts | 263° |
| 2026-04-26 05:46 | 33.98241 | -118.10207 | 4705 ft | 244 kts | 263° |
| 2026-04-26 05:46 | 33.98039 | -118.12231 | 4383 ft | 241 kts | 263° |
| 2026-04-26 05:47 | 33.97842 | -118.14201 | 4057 ft | 233 kts | 263° |
| 2026-04-26 05:47 | 33.97652 | -118.16098 | 3791 ft | 223 kts | 263° |
| 2026-04-26 05:47 | 33.97469 | -118.17916 | 3527 ft | 214 kts | 263° |
| 2026-04-26 05:47 | 33.97294 | -118.19661 | 3273 ft | 206 kts | 264° |
| 2026-04-26 05:48 | 33.97412 | -118.21357 | 3038 ft | 208 kts | 294° |
| 2026-04-26 05:48 | 33.98360 | -118.22605 | 3513 ft | 210 kts | 331° |
| 2026-04-26 05:48 | 33.99786 | -118.23053 | 4245 ft | 218 kts | 350° |
| 2026-04-26 05:48 | 34.01303 | -118.23222 | 4474 ft | 220 kts | 354° |
| 2026-04-26 05:49 | 34.02799 | -118.22836 | 4530 ft | 223 kts | 26° |
| 2026-04-26 05:49 | 34.04419 | -118.19776 | 3729 ft | 225 kts | 80° |
| 2026-04-26 05:49 | 34.04662 | -118.17897 | 3343 ft | 227 kts | 82° |
| 2026-04-26 05:50 | 34.04893 | -118.16035 | 3129 ft | 223 kts | 81° |
| 2026-04-26 05:50 | 34.05115 | -118.14190 | 2966 ft | 223 kts | 81° |
| 2026-04-26 05:50 | 34.05337 | -118.12338 | 2946 ft | 223 kts | 81° |
| 2026-04-26 05:50 | 34.05554 | -118.10473 | 2960 ft | 224 kts | 85° |
| 2026-04-26 05:51 | 34.05296 | -118.08656 | 2942 ft | 221 kts | 119° |
| 2026-04-26 05:51 | 34.04268 | -118.07331 | 2949 ft | 217 kts | 154° |
| 2026-04-26 05:51 | 34.02841 | -118.06857 | 2967 ft | 213 kts | 184° |
| 2026-04-26 05:51 | 34.01470 | -118.07383 | 2962 ft | 207 kts | 219° |
| 2026-04-26 05:52 | 34.00595 | -118.08688 | 2996 ft | 206 kts | 244° |
| 2026-04-26 05:52 | 33.99977 | -118.10269 | 3004 ft | 208 kts | 246° |
| 2026-04-26 05:52 | 33.99382 | -118.11856 | 2993 ft | 207 kts | 246° |
| 2026-04-26 05:52 | 33.98790 | -118.13435 | 2986 ft | 207 kts | 246° |
| 2026-04-26 05:53 | 33.98388 | -118.14499 | 2986 ft | 207 kts | 246° |
| 2026-04-26 05:53 | 33.97874 | -118.16096 | 2988 ft | 206 kts | 254° |
| 2026-04-26 05:53 | 33.97549 | -118.17780 | 2987 ft | 206 kts | 260° |
| 2026-04-26 05:53 | 33.97327 | -118.19485 | 2998 ft | 206 kts | 263° |
| 2026-04-26 05:54 | 33.97146 | -118.21197 | 2998 ft | 206 kts | 263° |
| 2026-04-26 05:54 | 33.96972 | -118.22905 | 2971 ft | 206 kts | 263° |
| 2026-04-26 05:54 | 33.96797 | -118.24620 | 2771 ft | 204 kts | 263° |
| 2026-04-26 05:54 | 33.96628 | -118.26281 | 2537 ft | 197 kts | 263° |
| 2026-04-26 05:55 | 33.96462 | -118.27909 | 2232 ft | 193 kts | 263° |
| 2026-04-26 05:55 | 33.96302 | -118.29484 | 1969 ft | 185 kts | 263° |
| 2026-04-26 05:55 | 33.96151 | -118.30980 | 1724 ft | 176 kts | 263° |
| 2026-04-26 05:55 | 33.96008 | -118.32381 | 1500 ft | 158 kts | 263° |
| 2026-04-26 05:56 | 33.95881 | -118.33623 | 1274 ft | 142 kts | 263° |
| 2026-04-26 05:56 | 33.95761 | -118.34797 | 1084 ft | 143 kts | 263° |
| 2026-04-26 05:56 | 33.95634 | -118.35989 | 886 ft | 143 kts | 263° |
| 2026-04-26 05:56 | 33.95522 | -118.37177 | 677 ft | 140 kts | 264° |
| 2026-04-26 05:57 | 33.95400 | -118.38346 | 468 ft | 140 kts | 262° |
| 2026-04-26 05:57 | 33.95283 | -118.39501 | 265 ft | 138 kts | 264° |
| 2026-04-26 05:57 | 33.95166 | -118.40636 | 111 ft | 131 kts | 264° |
| 2026-04-26 05:57 | 33.95081 | -118.41483 | 110 ft | 65 kts | 263° |
| 2026-04-26 05:58 | 33.95040 | -118.41871 | 110 ft | 44 kts | 262° |
| 2026-04-26 05:58 | 33.94961 | -118.42166 | 107 ft | 25 kts | 231° |
| 2026-04-26 05:58 | 33.94820 | -118.42279 | 108 ft | 24 kts | 187° |
| 2026-04-26 05:58 | 33.94688 | -118.42244 | 101 ft | 17 kts | 119° |
| 2026-04-26 05:59 | 33.94697 | -118.42100 | 101 ft | 19 kts | 83° |
| 2026-04-26 05:59 | 33.94716 | -118.41903 | 100 ft | 28 kts | 84° |
| 2026-04-26 05:59 | 33.94741 | -118.41651 | 101 ft | 31 kts | 83° |
| 2026-04-26 05:59 | 33.94775 | -118.41398 | 102 ft | 30 kts | 75° |
| 2026-04-26 06:00 | 33.94805 | -118.41152 | 101 ft | 30 kts | 83° |
| 2026-04-26 06:00 | 33.94832 | -118.40907 | 103 ft | 29 kts | 84° |
| 2026-04-26 06:00 | 33.94856 | -118.40660 | 102 ft | 30 kts | 83° |
| 2026-04-26 06:00 | 33.94881 | -118.40421 | 102 ft | 26 kts | 83° |
| 2026-04-26 06:01 | 33.94852 | -118.40290 | 106 ft | 17 kts | 159° |
| 2026-04-26 06:01 | 33.94757 | -118.40261 | 99 ft | 12 kts | 173° |
| 2026-04-26 06:01 | 33.94719 | -118.40248 | 99 ft | 3 kts | 117° |
| 2026-04-26 06:01 | 33.94720 | -118.40224 | 100 ft | 3 kts | 83° |
| 2026-04-26 06:02 | 33.94722 | -118.40197 | 97 ft | 2 kts | 84° |
| 2026-04-26 06:02 | 33.94723 | -118.40188 | 98 ft | 0 kts | 84° |